Time;durP1;ratioP1;P1;durP2;ratioP2;P2;SDS_P1;SDS_P2;PMS_P1;PMS_P2;Temp;Humidity;BMP_temperature;BMP_pressure;BME280_temperature;BME280_humidity;BME280_pressure;Samples;Min_cycle;Max_cycle;Signal;HPM_P1;HPM_P2
2021/12/02 00:01:55;;;;;;;5.13;3.73;;;28.20;99.90;;;;;;4967518;28;20641;-66
2021/12/02 00:04:22;;;;;;;6.83;4.07;;;28.30;99.90;;;;;;4972777;28;20191;-66
2021/12/02 00:06:51;;;;;;;4.63;3.90;;;28.40;99.90;;;;;;4973061;28;20198;-66
2021/12/02 00:09:18;;;;;;;5.13;3.87;;;27.90;99.90;;;;;;4964682;28;20195;-68
2021/12/02 00:11:45;;;;;;;4.23;3.60;;;27.80;99.90;;;;;;4969603;28;20695;-65
2021/12/02 00:14:15;;;;;;;4.67;3.50;;;27.00;99.90;;;;;;4972486;28;20222;-66
2021/12/02 00:17:05;;;;;;;6.27;3.60;;;26.70;99.90;;;;;;4973062;28;20179;-66
2021/12/02 00:22:28;;;;;;;5.97;4.00;;;27.70;99.90;;;;;;4961367;28;20700;-67
2021/12/02 00:25:00;;;;;;;12.53;3.33;;;28.10;99.90;;;;;;4953950;28;20235;-65
2021/12/02 00:27:29;;;;;;;6.57;3.60;;;28.60;99.90;;;;;;4953929;28;20290;-65
2021/12/02 00:29:58;;;;;;;5.93;3.03;;;28.60;99.90;;;;;;4952789;28;20270;-66
2021/12/02 00:32:32;;;;;;;6.33;3.57;;;28.10;99.90;;;;;;4953902;28;20184;-66
2021/12/02 00:35:00;;;;;;;6.90;3.17;;;27.80;99.90;;;;;;4953911;28;20184;-66
2021/12/02 00:37:27;;;;;;;6.83;3.33;;;28.40;99.90;;;;;;4953550;28;20188;-65
2021/12/02 00:39:57;;;;;;;6.03;3.23;;;28.70;99.90;;;;;;4936510;29;20215;-65
2021/12/02 00:42:34;;;;;;;3.90;3.00;;;29.00;99.90;;;;;;4954325;28;21005;-66
2021/12/02 00:45:03;;;;;;;11.97;3.90;;;28.80;99.90;;;;;;4953973;28;20189;-66
2021/12/02 00:47:32;;;;;;;6.23;3.30;;;29.20;99.90;;;;;;4952907;28;20215;-66
2021/12/02 00:50:00;;;;;;;6.77;3.43;;;29.10;99.90;;;;;;4953548;28;20295;-67
2021/12/02 00:52:29;;;;;;;5.73;3.07;;;28.80;99.90;;;;;;4953679;28;20180;-66
2021/12/02 00:54:57;;;;;;;7.60;3.37;;;29.20;99.90;;;;;;4954174;28;20257;-67
2021/12/02 00:57:27;;;;;;;4.93;3.10;;;29.20;99.90;;;;;;4952056;29;20224;-66
2021/12/02 00:59:58;;;;;;;5.30;2.83;;;29.10;99.90;;;;;;4953575;28;20183;-66
2021/12/02 01:02:26;;;;;;;3.90;3.00;;;29.10;99.90;;;;;;4952123;29;20283;-67
2021/12/02 01:05:00;;;;;;;3.70;2.87;;;28.90;99.90;;;;;;4956376;28;20657;-67
2021/12/02 01:07:28;;;;;;;3.87;2.73;;;29.30;99.90;;;;;;4963567;28;20221;-65
2021/12/02 01:09:57;;;;;;;3.67;2.63;;;29.60;99.90;;;;;;4963576;28;20191;-65
2021/12/02 01:12:28;;;;;;;2.87;2.40;;;29.80;99.90;;;;;;4962604;28;20192;-67
2021/12/02 01:14:56;;;;;;;4.83;2.57;;;29.80;99.90;;;;;;4960675;28;20232;-67
2021/12/02 01:17:24;;;;;;;7.00;2.33;;;29.90;99.90;;;;;;4967650;28;20186;-66
2021/12/02 01:19:51;;;;;;;21.80;14.00;;;29.90;99.90;;;;;;4971406;28;20198;-66
2021/12/02 01:22:19;;;;;;;6.33;2.93;;;29.30;99.90;;;;;;4972463;28;20556;-66
2021/12/02 01:24:50;;;;;;;4.57;2.63;;;29.00;99.90;;;;;;4972647;28;20192;-65
2021/12/02 01:27:21;;;;;;;3.03;1.97;;;29.60;99.90;;;;;;4972464;28;20211;-66
2021/12/02 01:29:53;;;;;;;4.90;2.50;;;29.50;99.90;;;;;;4971173;28;20237;-66
2021/12/02 01:32:22;;;;;;;4.63;2.50;;;29.60;99.90;;;;;;4953895;28;20218;-67
2021/12/02 01:34:50;;;;;;;2.87;2.30;;;29.90;99.90;;;;;;4953388;28;20231;-68
2021/12/02 01:37:18;;;;;;;4.63;2.40;;;29.30;99.90;;;;;;4951757;29;20567;-66
2021/12/02 01:39:48;;;;;;;3.57;2.10;;;29.00;99.90;;;;;;4951681;28;20248;-67
2021/12/02 01:42:26;;;;;;;5.30;2.13;;;29.40;99.90;;;;;;4954509;28;20188;-67
2021/12/02 01:44:58;;;;;;;4.83;1.93;;;29.30;99.90;;;;;;4959109;28;20645;-66
2021/12/02 01:47:30;;;;;;;4.33;2.00;;;29.90;99.90;;;;;;4973334;28;20199;-66
2021/12/02 01:50:04;;;;;;;2.93;1.90;;;30.30;99.90;;;;;;4973744;28;20269;-67
2021/12/02 01:52:34;;;;;;;4.43;1.80;;;31.10;99.90;;;;;;4972410;28;20279;-65
2021/12/02 01:55:11;;;;;;;5.13;2.70;;;31.20;99.90;;;;;;4956772;28;20203;-66
2021/12/02 01:57:42;;;;;;;4.13;1.97;;;30.00;99.90;;;;;;4955265;28;20270;-67
2021/12/02 02:00:15;;;;;;;2.47;1.87;;;29.60;99.90;;;;;;4958210;28;20179;-67
2021/12/02 02:02:43;;;;;;;3.53;1.90;;;30.30;99.90;;;;;;4970859;28;20226;-67
2021/12/02 02:05:14;;;;;;;2.50;1.70;;;29.90;99.90;;;;;;4961326;28;20255;-67
2021/12/02 02:07:48;;;;;;;8.00;2.00;;;30.00;99.90;;;;;;4964442;28;20223;-69
2021/12/02 02:10:18;;;;;;;3.40;1.90;;;29.80;99.90;;;;;;4958276;28;20184;-68
2021/12/02 02:12:47;;;;;;;4.57;1.77;;;29.20;99.90;;;;;;4958692;28;20254;-68
2021/12/02 02:15:15;;;;;;;3.20;1.60;;;29.70;99.90;;;;;;4972289;28;20246;-67
2021/12/02 02:17:53;;;;;;;2.53;1.70;;;30.30;99.90;;;;;;4976918;28;20176;-69
2021/12/02 02:20:42;;;;;;;5.50;1.60;;;29.80;99.90;;;;;;4975285;28;20175;-72
2021/12/02 02:23:12;;;;;;;4.50;1.40;;;29.30;99.90;;;;;;4978114;28;20637;-69
2021/12/02 02:25:45;;;;;;;5.10;1.47;;;29.10;99.90;;;;;;4978296;28;20213;-73
2021/12/02 02:28:14;;;;;;;2.63;1.60;;;28.90;99.90;;;;;;4978735;28;20211;-71
2021/12/02 02:30:42;;;;;;;1.83;1.43;;;28.70;99.90;;;;;;4980463;28;20223;-74
2021/12/02 02:33:11;;;;;;;1.53;1.10;;;28.80;99.90;;;;;;4979462;28;20214;-68
2021/12/02 02:35:40;;;;;;;3.17;1.57;;;28.90;99.90;;;;;;4978160;28;20222;-69
2021/12/02 02:38:11;;;;;;;1.40;1.13;;;28.70;99.90;;;;;;4977843;28;20668;-69
2021/12/02 02:40:41;;;;;;;2.47;1.37;;;28.90;99.90;;;;;;4976777;28;20207;-68
2021/12/02 02:43:10;;;;;;;2.10;1.20;;;29.30;99.90;;;;;;4978138;28;20246;-72
2021/12/02 02:45:39;;;;;;;3.80;1.20;;;30.20;99.90;;;;;;4978999;28;20175;-67
2021/12/02 02:48:11;;;;;;;3.60;1.30;;;30.70;99.90;;;;;;4978638;28;20219;-68
2021/12/02 02:50:39;;;;;;;3.80;1.33;;;30.90;99.90;;;;;;4981202;28;20184;-70
2021/12/02 02:53:18;;;;;;;2.43;1.00;;;31.20;99.90;;;;;;4983336;28;20201;-69
2021/12/02 03:01:29;;;;;;;3.00;1.30;;;30.80;99.90;;;;;;4980339;28;20646;-69
2021/12/02 03:06:51;;;;;;;1.70;1.30;;;30.00;99.90;;;;;;4978304;28;20589;-68
2021/12/02 03:12:18;;;;;;;3.23;1.20;;;29.80;99.90;;;;;;4979057;28;20637;-69
2021/12/02 03:16:36;;;;;;;2.97;1.50;;;30.40;99.90;;;;;;4977432;28;20231;-72
2021/12/02 03:17:36;;;;;;;4.67;1.73;;;31.20;99.90;;;;;;4976588;28;20238;-71
2021/12/02 03:20:06;;;;;;;1.63;1.20;;;31.60;99.90;;;;;;4977397;28;20218;-71
2021/12/02 03:22:38;;;;;;;3.77;0.93;;;31.80;99.90;;;;;;4976574;28;20563;-72
2021/12/02 03:25:14;;;;;;;1.63;0.93;;;31.20;99.90;;;;;;4977734;28;20629;-67
2021/12/02 03:27:43;;;;;;;3.33;1.03;;;30.80;99.90;;;;;;4977382;28;20211;-69
2021/12/02 03:30:14;;;;;;;3.00;0.90;;;30.20;99.90;;;;;;4976689;28;20195;-67
2021/12/02 03:32:46;;;;;;;2.27;1.00;;;29.40;99.90;;;;;;4977654;28;20189;-70
2021/12/02 03:35:16;;;;;;;4.00;0.97;;;28.80;99.90;;;;;;4978233;28;20611;-72
2021/12/02 03:37:44;;;;;;;3.77;0.93;;;28.70;99.90;;;;;;4972603;28;20188;-71
2021/12/02 03:40:12;;;;;;;2.07;1.33;;;29.30;99.90;;;;;;4958959;28;20278;-67
2021/12/02 03:42:53;;;;;;;2.23;1.07;;;30.10;99.90;;;;;;4956666;28;20180;-69
2021/12/02 03:45:25;;;;;;;3.63;1.30;;;30.80;99.90;;;;;;4956327;28;20645;-68
2021/12/02 03:47:53;;;;;;;6.47;1.50;;;31.20;99.90;;;;;;4956077;28;20218;-70
2021/12/02 03:50:21;;;;;;;2.63;1.10;;;31.40;99.90;;;;;;4956535;28;20183;-68
2021/12/02 03:52:49;;;;;;;4.07;1.27;;;30.40;99.90;;;;;;4956309;28;20176;-70
2021/12/02 03:55:17;;;;;;;5.13;0.77;;;30.40;99.90;;;;;;4958639;28;20239;-69
2021/12/02 03:57:44;;;;;;;1.57;0.80;;;30.50;99.90;;;;;;4956091;28;20180;-71
2021/12/02 04:00:12;;;;;;;3.30;1.17;;;29.70;99.90;;;;;;4956608;28;20274;-69
2021/12/02 04:02:40;;;;;;;5.13;1.20;;;29.10;99.90;;;;;;4958920;28;20179;-69
2021/12/02 04:05:08;;;;;;;2.50;0.70;;;29.00;99.90;;;;;;4965949;28;20203;-70
2021/12/02 04:07:36;;;;;;;2.03;0.60;;;29.30;99.90;;;;;;4966430;28;20259;-69
2021/12/02 04:10:04;;;;;;;3.27;1.00;;;30.00;99.90;;;;;;4966387;28;20182;-68
2021/12/02 04:12:49;;;;;;;3.97;0.80;;;30.60;99.90;;;;;;4967894;28;20517;-72
2021/12/02 04:15:24;;;;;;;4.03;1.10;;;30.80;99.90;;;;;;4965751;28;20223;-70
2021/12/02 04:17:53;;;;;;;4.07;1.00;;;30.50;99.90;;;;;;4964577;28;20213;-69
2021/12/02 04:20:30;;;;;;;2.70;0.83;;;30.70;99.90;;;;;;4967867;28;20187;-68
2021/12/02 04:22:59;;;;;;;2.40;1.13;;;31.00;99.90;;;;;;4973914;28;20230;-69
2021/12/02 04:25:28;;;;;;;4.37;0.90;;;31.40;99.90;;;;;;4974122;28;20598;-71
2021/12/02 04:27:55;;;;;;;7.47;1.03;;;31.60;99.90;;;;;;4974901;28;20221;-70
2021/12/02 04:30:26;;;;;;;2.33;0.77;;;31.30;99.90;;;;;;4975385;28;20258;-69
2021/12/02 04:32:55;;;;;;;3.63;1.20;;;31.10;99.90;;;;;;4964280;28;20202;-71
2021/12/02 04:35:26;;;;;;;2.47;0.50;;;31.00;99.90;;;;;;4970658;28;20219;-69
2021/12/02 04:37:54;;;;;;;2.10;0.70;;;31.10;99.90;;;;;;4968549;28;20182;-70
2021/12/02 04:40:24;;;;;;;4.67;1.10;;;31.10;99.90;;;;;;4969874;28;20243;-68
2021/12/02 04:42:53;;;;;;;3.83;0.77;;;30.90;99.90;;;;;;4958765;28;20227;-68
2021/12/02 04:45:22;;;;;;;3.90;0.70;;;30.60;99.90;;;;;;4954658;28;20242;-69
2021/12/02 04:47:50;;;;;;;4.33;0.70;;;30.40;99.90;;;;;;4960486;28;20235;-68
2021/12/02 04:50:18;;;;;;;2.10;1.00;;;30.60;99.90;;;;;;4969721;28;20199;-69
2021/12/02 04:52:46;;;;;;;2.23;0.67;;;30.90;99.90;;;;;;4974212;28;20187;-70
2021/12/02 04:55:14;;;;;;;4.07;0.73;;;30.80;99.90;;;;;;4973564;28;20558;-70
2021/12/02 04:57:41;;;;;;;9.77;1.00;;;30.80;99.90;;;;;;4967569;28;20191;-70
2021/12/02 05:00:09;;;;;;;3.20;0.70;;;30.90;99.90;;;;;;4973035;28;20676;-70
2021/12/02 05:02:39;;;;;;;1.40;0.40;;;30.90;99.90;;;;;;4969589;28;20357;-70
2021/12/02 05:05:10;;;;;;;3.17;0.60;;;30.90;99.90;;;;;;4972991;28;20697;-71
2021/12/02 05:07:38;;;;;;;4.83;1.00;;;31.00;99.90;;;;;;4972856;28;20306;-68
2021/12/02 05:10:07;;;;;;;4.67;0.67;;;30.60;99.90;;;;;;4972879;28;20186;-70
2021/12/02 05:12:36;;;;;;;3.20;0.67;;;30.90;99.90;;;;;;4962797;28;20194;-70
2021/12/02 05:15:05;;;;;;;1.43;0.50;;;31.00;99.90;;;;;;4952110;28;20701;-69
2021/12/02 05:17:34;;;;;;;3.53;0.60;;;31.20;99.90;;;;;;4968508;28;20199;-71
2021/12/02 05:20:04;;;;;;;1.57;0.70;;;31.40;99.90;;;;;;4971689;28;20761;-68
2021/12/02 05:22:32;;;;;;;1.93;0.60;;;31.10;99.90;;;;;;4972536;28;20833;-68
2021/12/02 05:25:00;;;;;;;2.33;0.70;;;31.20;99.90;;;;;;4971826;28;20566;-68
2021/12/02 05:27:28;;;;;;;1.63;0.40;;;31.20;99.90;;;;;;4972642;28;20305;-69
2021/12/02 05:30:04;;;;;;;5.77;1.23;;;30.70;99.90;;;;;;4970645;28;20222;-69
2021/12/02 05:32:31;;;;;;;1.20;0.77;;;30.60;99.90;;;;;;4952370;28;20194;-68
2021/12/02 05:35:00;;;;;;;3.70;1.10;;;30.10;99.90;;;;;;4962212;28;20238;-70
2021/12/02 05:37:28;;;;;;;4.30;0.90;;;30.10;99.90;;;;;;4965336;28;20732;-68
2021/12/02 05:39:58;;;;;;;2.83;0.80;;;30.20;99.90;;;;;;4969366;28;20211;-67
2021/12/02 05:42:26;;;;;;;4.17;1.00;;;29.90;99.90;;;;;;4959528;28;20203;-68
2021/12/02 05:44:54;;;;;;;5.70;0.60;;;29.80;99.90;;;;;;4965007;28;20190;-68
2021/12/02 05:47:22;;;;;;;2.73;0.90;;;29.40;99.90;;;;;;4960361;28;20584;-70
2021/12/02 05:49:49;;;;;;;4.03;0.60;;;29.80;99.90;;;;;;4955486;28;20658;-69
2021/12/02 05:52:17;;;;;;;5.03;0.80;;;29.90;99.90;;;;;;4957527;28;20222;-70
2021/12/02 05:54:45;;;;;;;3.07;0.60;;;30.30;99.90;;;;;;4969307;28;20194;-71
2021/12/02 05:57:13;;;;;;;3.00;0.80;;;30.00;99.90;;;;;;4955284;29;20634;-70
2021/12/02 05:59:40;;;;;;;2.83;0.70;;;30.10;99.90;;;;;;4956493;28;20599;-71
2021/12/02 06:02:08;;;;;;;1.53;0.53;;;29.80;99.90;;;;;;4972515;28;20645;-70
2021/12/02 06:04:38;;;;;;;4.23;0.80;;;29.90;99.90;;;;;;4970707;28;20598;-70
2021/12/02 06:07:07;;;;;;;1.63;0.53;;;30.00;99.90;;;;;;4956976;28;20184;-69
2021/12/02 06:09:35;;;;;;;2.97;0.77;;;29.40;99.90;;;;;;4967082;28;20716;-69
2021/12/02 06:12:03;;;;;;;2.53;0.80;;;29.10;99.90;;;;;;4960935;28;20528;-69
2021/12/02 06:14:30;;;;;;;4.00;0.70;;;29.40;99.90;;;;;;4971359;28;20592;-71
2021/12/02 06:16:58;;;;;;;3.90;0.70;;;29.80;99.90;;;;;;4957218;28;20729;-68
2021/12/02 06:19:26;;;;;;;3.63;0.93;;;29.80;99.90;;;;;;4961788;28;20231;-70
2021/12/02 06:21:55;;;;;;;4.47;1.00;;;29.20;99.90;;;;;;4963162;28;20186;-68
2021/12/02 06:24:31;;;;;;;2.80;1.13;;;28.70;99.90;;;;;;4971999;28;20327;-71
2021/12/02 06:26:59;;;;;;;2.93;0.87;;;28.80;99.90;;;;;;4960432;28;20666;-70
2021/12/02 06:29:27;;;;;;;1.33;0.83;;;28.60;99.90;;;;;;4961697;28;20231;-71
2021/12/02 06:31:56;;;;;;;3.57;0.83;;;28.40;99.90;;;;;;4978852;28;20303;-69
2021/12/02 06:34:24;;;;;;;3.57;0.90;;;28.60;99.90;;;;;;4976692;28;20179;-71
2021/12/02 06:36:51;;;;;;;1.60;0.63;;;28.60;99.90;;;;;;4977197;28;20238;-70
2021/12/02 06:39:20;;;;;;;3.87;1.00;;;28.80;99.90;;;;;;4975909;28;20254;-69
2021/12/02 06:41:47;;;;;;;1.13;0.83;;;28.40;99.90;;;;;;4968895;28;20192;-70
2021/12/02 06:44:15;;;;;;;3.03;0.90;;;27.90;99.90;;;;;;4955402;28;20636;-68
2021/12/02 06:46:43;;;;;;;4.87;1.00;;;27.50;99.90;;;;;;4955265;28;20267;-68
2021/12/02 06:49:11;;;;;;;3.70;1.00;;;27.40;99.90;;;;;;4955566;28;20231;-69
2021/12/02 06:51:38;;;;;;;2.07;0.90;;;27.10;99.90;;;;;;4966914;28;20563;-69
2021/12/02 06:54:06;;;;;;;2.23;1.00;;;26.60;99.90;;;;;;4974897;28;20266;-69
2021/12/02 06:56:34;;;;;;;3.17;1.20;;;26.50;99.90;;;;;;4973417;28;20180;-68
2021/12/02 06:59:02;;;;;;;4.70;1.33;;;26.40;99.90;;;;;;4972364;28;20582;-69
2021/12/02 07:01:29;;;;;;;3.97;1.33;;;26.40;99.90;;;;;;4974810;28;20195;-69
2021/12/02 07:03:57;;;;;;;4.30;1.10;;;26.60;99.90;;;;;;4973373;28;20188;-67
2021/12/02 07:06:25;;;;;;;3.13;1.57;;;26.90;99.90;;;;;;4970340;28;20175;-69
2021/12/02 07:08:53;;;;;;;1.53;1.00;;;27.00;99.90;;;;;;4974405;28;20234;-69
2021/12/02 07:11:20;;;;;;;4.17;1.20;;;27.20;99.90;;;;;;4955619;28;20184;-68
2021/12/02 07:13:50;;;;;;;5.67;0.93;;;27.20;99.90;;;;;;4955077;28;20314;-68
2021/12/02 07:16:20;;;;;;;1.13;0.73;;;27.30;99.90;;;;;;4957768;28;20210;-68
2021/12/02 07:18:54;;;;;;;4.97;1.10;;;27.10;99.90;;;;;;4960344;28;20191;-69
2021/12/02 07:21:23;;;;;;;3.23;1.17;;;27.00;99.90;;;;;;4971435;28;20713;-67
2021/12/02 07:23:52;;;;;;;2.27;1.00;;;26.90;99.90;;;;;;4957826;28;20188;-68
2021/12/02 07:26:20;;;;;;;5.17;1.20;;;26.90;99.90;;;;;;4963935;28;20176;-70
2021/12/02 07:28:48;;;;;;;4.20;1.40;;;27.10;99.90;;;;;;4958998;28;20647;-69
2021/12/02 07:31:16;;;;;;;4.97;1.07;;;27.00;99.90;;;;;;4973807;28;20187;-68
2021/12/02 07:33:48;;;;;;;3.07;1.33;;;27.00;99.90;;;;;;4974566;28;20175;-69
2021/12/02 07:36:17;;;;;;;2.13;1.17;;;26.60;99.90;;;;;;4969256;28;20542;-70
2021/12/02 07:38:46;;;;;;;1.50;0.80;;;26.60;99.90;;;;;;4974006;28;20618;-69
2021/12/02 07:41:14;;;;;;;2.40;1.00;;;26.60;99.90;;;;;;4956191;28;20579;-67
2021/12/02 07:43:42;;;;;;;3.17;1.03;;;26.60;99.90;;;;;;4954690;28;20294;-68
2021/12/02 07:46:10;;;;;;;1.00;0.90;;;26.70;99.90;;;;;;4954485;28;20227;-69
2021/12/02 07:48:39;;;;;;;3.07;1.20;;;26.20;99.90;;;;;;4954366;28;20211;-67
2021/12/02 07:51:16;;;;;;;2.20;1.03;;;25.80;99.90;;;;;;4962888;28;20192;-69
2021/12/02 07:53:48;;;;;;;2.20;0.97;;;25.60;99.90;;;;;;4973760;28;20190;-68
2021/12/02 07:56:19;;;;;;;2.20;0.90;;;25.40;99.90;;;;;;4970288;28;20244;-70
2021/12/02 07:58:49;;;;;;;6.07;1.23;;;25.20;99.90;;;;;;4962008;28;20188;-69
2021/12/02 08:01:18;;;;;;;2.43;0.80;;;25.30;99.90;;;;;;4970198;28;20648;-67
2021/12/02 08:03:47;;;;;;;4.37;0.93;;;25.40;99.90;;;;;;4954237;28;20611;-68
2021/12/02 08:06:16;;;;;;;1.23;0.90;;;25.20;99.90;;;;;;4953986;28;20191;-68
2021/12/02 08:08:46;;;;;;;0.73;0.70;;;25.30;99.90;;;;;;4961201;28;20222;-68
2021/12/02 08:11:14;;;;;;;3.60;0.77;;;25.10;99.90;;;;;;4967832;28;20187;-68
2021/12/02 08:13:42;;;;;;;0.70;0.63;;;24.80;99.90;;;;;;4973084;28;20241;-69
2021/12/02 08:16:09;;;;;;;1.63;0.60;;;24.60;99.90;;;;;;4969718;28;20183;-68
2021/12/02 08:18:37;;;;;;;3.80;0.80;;;24.60;99.90;;;;;;4954363;28;20186;-69
2021/12/02 08:21:05;;;;;;;2.73;0.80;;;24.50;99.90;;;;;;4954132;28;20191;-69
2021/12/02 08:23:33;;;;;;;2.50;0.67;;;24.30;99.90;;;;;;4954053;29;20290;-68
2021/12/02 08:26:01;;;;;;;2.27;0.77;;;24.10;99.90;;;;;;4953886;28;20777;-70
2021/12/02 08:28:28;;;;;;;2.73;0.77;;;23.90;99.90;;;;;;4958173;28;20581;-71
2021/12/02 08:30:58;;;;;;;1.27;0.73;;;23.80;99.90;;;;;;4973131;28;20170;-69
2021/12/02 08:33:26;;;;;;;3.93;0.70;;;23.70;99.90;;;;;;4972599;28;20291;-68
2021/12/02 08:35:54;;;;;;;2.53;0.80;;;23.70;99.90;;;;;;4960451;28;20493;-68
2021/12/02 08:38:30;;;;;;;2.50;1.20;;;23.60;99.90;;;;;;4953544;28;20274;-68
2021/12/02 08:41:00;;;;;;;4.67;1.33;;;23.50;99.90;;;;;;4967420;28;20256;-68
2021/12/02 08:43:29;;;;;;;2.87;0.70;;;23.30;99.90;;;;;;4973100;28;20221;-67
2021/12/02 08:45:58;;;;;;;1.13;0.80;;;23.20;99.90;;;;;;4970767;28;20190;-68
2021/12/02 08:48:25;;;;;;;2.77;1.10;;;23.10;99.90;;;;;;4953557;28;20219;-67
2021/12/02 08:50:53;;;;;;;5.17;1.40;;;23.00;99.90;;;;;;4966632;28;20195;-68
2021/12/02 08:53:21;;;;;;;3.03;0.87;;;22.90;99.90;;;;;;4972954;28;20182;-68
2021/12/02 08:55:48;;;;;;;4.13;0.83;;;22.80;99.90;;;;;;4971819;28;20233;-68
2021/12/02 08:58:16;;;;;;;7.63;1.03;;;22.80;99.90;;;;;;4968028;28;20232;-69
2021/12/02 09:00:44;;;;;;;1.57;0.90;;;22.80;99.90;;;;;;4959231;28;20186;-68
2021/12/02 09:03:15;;;;;;;1.80;0.83;;;22.70;99.90;;;;;;4969704;28;20544;-69
2021/12/02 09:05:44;;;;;;;4.10;0.70;;;22.70;99.90;;;;;;4972810;28;20245;-68
2021/12/02 09:08:12;;;;;;;2.20;0.60;;;22.80;99.90;;;;;;4972570;28;20305;-69
2021/12/02 09:10:40;;;;;;;3.77;1.13;;;22.70;99.90;;;;;;4976609;28;20179;-69
2021/12/02 09:13:08;;;;;;;2.37;0.90;;;22.70;99.90;;;;;;4976431;28;20189;-68
2021/12/02 09:15:38;;;;;;;4.43;0.93;;;22.60;99.90;;;;;;4976563;28;20283;-69
2021/12/02 09:18:06;;;;;;;5.53;2.67;;;22.60;99.90;;;;;;4976591;28;20193;-68
2021/12/02 09:20:34;;;;;;;5.50;1.87;;;22.50;99.90;;;;;;4976431;28;20262;-69
2021/12/02 09:23:02;;;;;;;4.30;1.40;;;22.40;99.90;;;;;;4974889;28;20187;-69
2021/12/02 09:25:29;;;;;;;9.77;3.57;;;22.50;99.90;;;;;;4976421;28;20541;-69
2021/12/02 09:27:57;;;;;;;2.20;1.03;;;22.40;99.90;;;;;;4976347;28;20301;-69
2021/12/02 09:30:25;;;;;;;8.20;3.40;;;22.40;99.90;;;;;;4976443;28;20183;-69
2021/12/02 09:32:53;;;;;;;3.50;1.10;;;22.30;99.90;;;;;;4966507;28;20242;-68
2021/12/02 09:35:21;;;;;;;1.90;0.73;;;22.20;99.90;;;;;;4966465;28;20259;-69
2021/12/02 09:37:49;;;;;;;0.87;0.67;;;22.20;99.90;;;;;;4972173;28;20187;-69
2021/12/02 09:40:18;;;;;;;2.30;0.80;;;22.20;99.90;;;;;;4976160;28;20620;-69
2021/12/02 09:42:47;;;;;;;3.90;1.03;;;22.10;99.90;;;;;;4976076;28;20585;-68
2021/12/02 09:45:16;;;;;;;2.23;0.73;;;22.10;99.90;;;;;;4976158;28;20612;-68
2021/12/02 09:47:47;;;;;;;2.23;0.90;;;22.00;99.90;;;;;;4976026;28;20226;-67
2021/12/02 09:50:21;;;;;;;2.87;1.20;;;22.00;99.90;;;;;;4965933;28;20289;-69
2021/12/02 09:52:49;;;;;;;2.23;0.70;;;22.00;99.90;;;;;;4955464;28;20200;-69
2021/12/02 09:57:59;;;;;;;3.47;0.80;;;21.90;99.90;;;;;;4970661;28;20187;-68
2021/12/02 10:01:17;;;;;;;1.73;0.70;;;21.90;99.90;;;;;;4976244;28;20199;-68
2021/12/02 10:03:24;;;;;;;3.70;0.90;;;21.90;99.90;;;;;;4975094;28;20196;-68
2021/12/02 10:06:19;;;;;;;2.77;1.10;;;21.80;99.90;;;;;;4975677;28;20179;-67
2021/12/02 10:11:29;;;;;;;4.53;0.77;;;21.70;99.90;;;;;;4975719;28;20179;-68
2021/12/02 10:14:10;;;;;;;2.93;0.90;;;21.70;99.90;;;;;;4975395;28;20223;-69
2021/12/02 10:16:42;;;;;;;3.47;1.00;;;21.70;99.90;;;;;;4968412;28;20185;-69
2021/12/02 10:19:11;;;;;;;5.80;1.40;;;21.70;99.90;;;;;;4955898;28;20275;-67
2021/12/02 10:21:45;;;;;;;3.93;1.23;;;21.70;99.90;;;;;;4956104;28;20184;-69
2021/12/02 10:24:13;;;;;;;2.37;0.97;;;21.70;99.90;;;;;;4963852;28;20272;-67
2021/12/02 10:26:44;;;;;;;4.60;1.30;;;21.60;99.90;;;;;;4975681;28;20547;-68
2021/12/02 10:29:19;;;;;;;8.03;1.20;;;21.60;99.90;;;;;;4976456;28;20207;-68
2021/12/02 10:32:03;;;;;;;2.77;1.00;;;21.50;99.90;;;;;;4976839;28;20173;-70
2021/12/02 10:34:31;;;;;;;3.53;1.20;;;21.60;99.90;;;;;;4975056;28;20183;-68
2021/12/02 10:37:11;;;;;;;4.63;1.30;;;21.60;99.90;;;;;;4973036;28;20235;-68
2021/12/02 10:39:38;;;;;;;2.50;1.00;;;21.60;99.90;;;;;;4957326;28;20219;-67
2021/12/02 10:42:09;;;;;;;3.70;1.00;;;21.60;99.90;;;;;;4957365;28;20168;-69
2021/12/02 10:44:40;;;;;;;3.37;1.03;;;21.50;99.90;;;;;;4967365;28;20189;-68
2021/12/02 10:47:08;;;;;;;2.77;1.33;;;21.40;99.90;;;;;;4972162;28;20189;-68
2021/12/02 10:49:48;;;;;;;4.77;1.00;;;21.40;99.90;;;;;;4957172;28;20191;-68
2021/12/02 10:52:22;;;;;;;3.00;1.13;;;21.40;99.90;;;;;;4964363;28;20516;-69
2021/12/02 10:55:01;;;;;;;1.57;1.10;;;21.30;99.90;;;;;;4976354;28;20272;-68
2021/12/02 10:57:31;;;;;;;1.17;0.77;;;21.30;99.90;;;;;;4969668;28;20268;-68
2021/12/02 11:00:02;;;;;;;1.73;1.23;;;21.20;99.90;;;;;;4956681;29;20172;-69
2021/12/02 11:02:34;;;;;;;3.37;1.10;;;21.20;99.90;;;;;;4957031;28;20269;-72
2021/12/02 11:05:07;;;;;;;2.00;1.00;;;21.20;99.90;;;;;;4957016;28;20223;-69
2021/12/02 11:07:40;;;;;;;2.33;0.90;;;21.20;99.90;;;;;;4963637;28;20575;-70
2021/12/02 11:10:14;;;;;;;2.43;1.20;;;21.20;99.90;;;;;;4973167;28;20198;-68
2021/12/02 11:12:44;;;;;;;3.50;1.10;;;21.20;99.90;;;;;;4975869;28;20181;-69
2021/12/02 11:15:27;;;;;;;4.77;1.33;;;21.20;99.90;;;;;;4975281;28;21113;-72
2021/12/02 11:17:59;;;;;;;2.40;1.17;;;21.20;99.90;;;;;;4966224;28;20236;-72
2021/12/02 11:20:37;;;;;;;2.43;1.20;;;21.10;99.90;;;;;;4965024;28;20203;-69
2021/12/02 11:23:14;;;;;;;68.80;37.47;;;21.00;99.90;;;;;;4976646;28;20262;-70
2021/12/02 11:26:07;;;;;;;20.97;12.20;;;21.00;99.90;;;;;;4975791;28;20250;-72
2021/12/02 11:28:43;;;;;;;1.70;1.30;;;20.90;99.90;;;;;;4959271;28;20227;-69
2021/12/02 11:31:21;;;;;;;3.07;1.20;;;20.90;99.90;;;;;;4955997;28;20193;-71
2021/12/02 11:33:52;;;;;;;7.37;1.20;;;20.90;99.90;;;;;;4957387;28;20266;-69
2021/12/02 11:36:22;;;;;;;1.97;1.20;;;20.90;99.90;;;;;;4975295;28;20218;-70
2021/12/02 11:38:55;;;;;;;2.33;0.93;;;20.90;99.90;;;;;;4957418;28;20186;-69
2021/12/02 11:41:24;;;;;;;2.77;1.10;;;21.00;99.90;;;;;;4956449;28;20242;-68
2021/12/02 11:43:54;;;;;;;2.73;0.90;;;21.00;99.90;;;;;;4956358;28;20197;-69
2021/12/02 11:46:21;;;;;;;4.17;0.70;;;21.00;99.90;;;;;;4956475;28;20201;-70
2021/12/02 11:48:49;;;;;;;2.30;1.03;;;20.90;99.90;;;;;;4955934;28;20247;-69
2021/12/02 11:51:20;;;;;;;4.23;1.07;;;20.90;99.90;;;;;;4956021;28;20227;-68
2021/12/02 11:53:49;;;;;;;2.97;0.93;;;20.90;99.90;;;;;;4956234;28;20172;-70
2021/12/02 11:56:19;;;;;;;1.43;1.00;;;20.90;99.90;;;;;;4956033;28;20172;-67
2021/12/02 11:58:49;;;;;;;4.40;1.07;;;20.80;99.90;;;;;;4956128;28;20744;-70
2021/12/02 12:01:25;;;;;;;2.13;1.00;;;20.80;99.90;;;;;;4961701;28;20179;-68
2021/12/02 12:04:08;;;;;;;2.13;0.97;;;20.80;99.90;;;;;;4966695;28;20191;-67
2021/12/02 12:06:40;;;;;;;2.47;0.80;;;20.80;99.90;;;;;;4968572;28;20181;-69
2021/12/02 12:09:17;;;;;;;2.07;0.70;;;20.70;99.90;;;;;;4956588;28;20689;-68
2021/12/02 12:11:48;;;;;;;1.73;1.10;;;20.70;99.90;;;;;;4956292;28;20198;-70
2021/12/02 12:14:19;;;;;;;3.60;0.80;;;20.70;99.90;;;;;;4955822;28;20263;-70
2021/12/02 12:16:51;;;;;;;1.90;0.90;;;20.60;99.90;;;;;;4956057;28;20240;-68
2021/12/02 12:19:31;;;;;;;3.00;0.90;;;20.60;99.90;;;;;;4954722;28;20235;-70
2021/12/02 12:22:01;;;;;;;9.57;1.13;;;20.60;99.90;;;;;;4955709;28;20189;-71
2021/12/02 12:24:57;;;;;;;4.33;1.00;;;20.50;99.90;;;;;;4955792;28;20181;-69
2021/12/02 12:27:27;;;;;;;3.97;1.00;;;20.50;99.90;;;;;;4964335;28;20202;-69
2021/12/02 12:30:08;;;;;;;4.83;1.00;;;20.50;99.90;;;;;;4974938;28;20183;-69
2021/12/02 12:38:27;;;;;;;1.80;1.37;;;20.50;99.90;;;;;;4961874;28;20270;-69
2021/12/02 12:41:13;;;;;;;3.13;1.30;;;20.50;99.90;;;;;;4955396;28;20174;-69
2021/12/02 12:43:50;;;;;;;5.97;1.00;;;20.50;99.90;;;;;;4966384;28;20268;-69
2021/12/02 12:46:24;;;;;;;3.60;0.87;;;20.40;99.90;;;;;;4971670;28;20178;-69
2021/12/02 12:48:54;;;;;;;2.40;0.83;;;20.40;99.90;;;;;;4955127;28;20306;-70
2021/12/02 12:51:32;;;;;;;2.43;0.60;;;20.40;99.90;;;;;;4955316;28;20662;-69
2021/12/02 12:54:02;;;;;;;9.20;1.47;;;20.30;99.90;;;;;;4955279;28;20214;-69
2021/12/02 12:56:38;;;;;;;3.87;0.90;;;20.40;99.90;;;;;;4957273;28;20560;-69
2021/12/02 12:59:08;;;;;;;3.33;1.10;;;20.30;99.90;;;;;;4974797;28;20183;-69
2021/12/02 13:01:37;;;;;;;1.73;0.80;;;20.30;99.90;;;;;;4974441;28;20180;-69
2021/12/02 13:04:07;;;;;;;3.87;0.80;;;20.20;99.90;;;;;;4974431;28;20211;-69
2021/12/02 13:06:49;;;;;;;6.70;0.97;;;20.20;99.90;;;;;;4958290;28;20172;-69
2021/12/02 13:09:38;;;;;;;4.57;1.53;;;20.20;99.90;;;;;;4975021;28;20306;-69
2021/12/02 13:12:07;;;;;;;2.20;0.80;;;20.20;99.90;;;;;;4959871;28;20200;-69
2021/12/02 13:14:35;;;;;;;3.47;1.00;;;20.10;99.90;;;;;;4954907;28;20235;-69
2021/12/02 13:17:42;;;;;;;2.93;0.90;;;20.10;99.90;;;;;;4961388;28;20177;-69
2021/12/02 13:20:29;;;;;;;4.03;1.10;;;20.10;99.90;;;;;;4974662;28;20226;-69
2021/12/02 13:23:20;;;;;;;6.80;1.00;;;20.00;99.90;;;;;;4974509;28;20223;-69
2021/12/02 13:25:54;;;;;;;1.30;0.90;;;20.10;99.90;;;;;;4974361;28;20218;-69
2021/12/02 13:28:35;;;;;;;1.60;0.87;;;20.00;99.90;;;;;;4956823;28;20222;-69
2021/12/02 13:31:08;;;;;;;2.53;0.90;;;19.90;99.90;;;;;;4954831;28;20182;-69